createdAt,value
2019-02-26T00:00:42.329Z,2.70
2019-02-26T00:03:19.452Z,2.84
2019-02-26T00:05:54.454Z,2.76
2019-02-26T00:08:31.716Z,2.51
2019-02-26T00:11:08.477Z,2.52
2019-02-26T00:13:43.354Z,2.51
2019-02-26T00:16:20.490Z,2.46
2019-02-26T00:18:58.053Z,2.51
2019-02-26T00:21:31.815Z,2.53
2019-02-26T00:24:07.858Z,2.51
2019-02-26T00:26:45.138Z,2.55
2019-02-26T00:29:21.168Z,2.48
2019-02-26T00:31:57.749Z,2.48
2019-02-26T00:34:34.690Z,2.50
2019-02-26T00:37:09.730Z,2.42
2019-02-26T00:39:45.348Z,2.43
2019-02-26T00:42:23.775Z,2.45
2019-02-26T00:45:00.132Z,2.44
2019-02-26T00:47:36.317Z,2.55
2019-02-26T00:50:14.075Z,2.48
2019-02-26T00:52:49.901Z,2.30
2019-02-26T00:55:27.344Z,2.38
2019-02-26T00:58:03.264Z,2.37
2019-02-26T01:00:38.801Z,2.44
2019-02-26T01:03:15.350Z,2.18
2019-02-26T01:05:50.629Z,2.21
2019-02-26T01:08:25.555Z,2.20
2019-02-26T01:11:02.092Z,2.34
2019-02-26T01:13:37.456Z,2.15
2019-02-26T01:16:12.373Z,2.24
2019-02-26T01:18:48.958Z,2.28
2019-02-26T01:21:26.234Z,2.17
2019-02-26T01:24:01.765Z,2.25
2019-02-26T01:26:37.315Z,2.25
2019-02-26T01:29:16.062Z,2.26
2019-02-26T01:31:48.814Z,2.30
2019-02-26T01:34:23.791Z,2.20
2019-02-26T01:37:00.806Z,2.24
2019-02-26T01:39:38.111Z,2.27
2019-02-26T01:42:13.373Z,2.24
2019-02-26T01:44:49.053Z,2.30
2019-02-26T01:47:24.164Z,2.22
2019-02-26T01:50:00.856Z,2.31
2019-02-26T01:52:35.844Z,2.15
2019-02-26T01:55:11.604Z,2.32
2019-02-26T01:57:46.549Z,2.24
2019-02-26T02:00:25.446Z,2.17
2019-02-26T02:02:58.678Z,2.16
2019-02-26T02:05:35.736Z,2.18
2019-02-26T02:08:13.246Z,2.17
2019-02-26T02:10:51.396Z,2.20
2019-02-26T02:13:28.274Z,2.02
2019-02-26T02:16:02.128Z,2.02
2019-02-26T02:18:43.778Z,2.06
2019-02-26T02:21:18.994Z,1.95
2019-02-26T02:23:53.941Z,2.01
2019-02-26T02:26:28.810Z,1.98
2019-02-26T02:29:04.287Z,1.91
2019-02-26T02:31:40.236Z,1.82
2019-02-26T02:34:15.162Z,1.80
2019-02-26T02:36:50.952Z,1.87
2019-02-26T02:39:26.542Z,1.82
2019-02-26T02:42:02.461Z,1.81
2019-02-26T02:44:39.102Z,1.91
2019-02-26T02:47:14.047Z,1.97
2019-02-26T02:49:48.872Z,1.84
2019-02-26T02:52:27.057Z,1.83
2019-02-26T02:55:01.861Z,1.83
2019-02-26T02:57:36.673Z,1.81
2019-02-26T03:00:13.444Z,1.77
2019-02-26T03:02:50.048Z,1.72
2019-02-26T03:05:24.895Z,1.91
2019-02-26T03:08:02.311Z,1.80
2019-02-26T03:10:42.357Z,1.73
2019-02-26T03:13:16.920Z,1.71
2019-02-26T03:15:55.599Z,1.81
2019-02-26T03:18:30.074Z,1.77
2019-02-26T03:21:05.010Z,1.74
2019-02-26T03:23:41.270Z,1.66
2019-02-26T03:26:17.902Z,1.54
2019-02-26T03:28:53.447Z,1.60
2019-02-26T03:31:31.030Z,1.60
2019-02-26T03:34:10.475Z,1.61
2019-02-26T03:36:45.057Z,1.60
2019-02-26T03:39:18.230Z,1.60
2019-02-26T03:41:56.349Z,1.57
2019-02-26T03:44:30.907Z,1.53
2019-02-26T03:47:05.803Z,1.69
2019-02-26T03:49:42.385Z,1.56
2019-02-26T03:52:17.298Z,1.52
2019-02-26T03:54:52.229Z,1.45
2019-02-26T03:57:27.205Z,1.49
2019-02-26T04:00:05.648Z,1.40
2019-02-26T04:02:42.581Z,1.56
2019-02-26T04:05:16.323Z,1.45
2019-02-26T04:07:54.994Z,1.40
2019-02-26T04:10:27.868Z,1.38
2019-02-26T04:13:03.065Z,1.34
2019-02-26T04:15:40.412Z,1.30
2019-02-26T04:18:17.763Z,1.32
2019-02-26T04:20:53.624Z,1.35
2019-02-26T04:23:30.936Z,1.40
2019-02-26T04:26:52.361Z,1.33
2019-02-26T04:30:00.319Z,1.23
2019-02-26T04:33:35.444Z,1.21
2019-02-26T04:36:44.649Z,1.12
2019-02-26T04:40:14.208Z,1.18
2019-02-26T04:43:52.515Z,1.17
2019-02-26T04:47:17.744Z,1.07
2019-02-26T04:49:54.255Z,1.27
2019-02-26T04:52:29.588Z,1.14
2019-02-26T04:55:05.673Z,1.14
2019-02-26T04:57:43.334Z,1.05
2019-02-26T05:07:38.523Z,1.15
2019-02-26T05:10:49.886Z,0.99
2019-02-26T05:14:01.277Z,1.04
2019-02-26T05:17:11.489Z,1.09
2019-02-26T05:20:21.718Z,1.08
2019-02-26T05:23:33.668Z,0.93
2019-02-26T05:26:44.996Z,0.96
2019-02-26T05:29:56.974Z,1.02
2019-02-26T05:33:15.976Z,1.03
2019-02-26T05:36:28.334Z,1.00
2019-02-26T05:39:40.658Z,0.96
2019-02-26T05:42:50.550Z,0.98
2019-02-26T05:46:31.212Z,1.00
2019-02-26T05:49:45.363Z,0.95
2019-02-26T05:52:57.434Z,0.95
2019-02-26T05:56:04.596Z,0.90
2019-02-26T05:59:15.900Z,0.84
2019-02-26T06:02:28.336Z,0.79
2019-02-26T06:05:41.139Z,0.75
2019-02-26T06:08:49.114Z,0.71
2019-02-26T06:11:59.719Z,0.70
2019-02-26T06:15:10.089Z,0.69
2019-02-26T06:18:21.013Z,0.66
2019-02-26T06:21:31.513Z,0.66
2019-02-26T06:24:41.414Z,0.63
2019-02-26T06:27:54.069Z,0.77
2019-02-26T06:31:04.793Z,0.66
2019-02-26T06:34:16.334Z,0.69
2019-02-26T06:37:28.355Z,0.68
2019-02-26T06:40:39.313Z,0.77
2019-02-26T06:43:50.280Z,0.80
2019-02-26T06:47:00.763Z,0.78
2019-02-26T06:50:13.244Z,0.85
2019-02-26T06:53:23.593Z,0.85
2019-02-26T06:55:58.596Z,0.85
2019-02-26T06:58:38.143Z,0.93
2019-02-26T07:01:14.391Z,0.97
2019-02-26T07:03:49.580Z,1.01
2019-02-26T07:06:25.490Z,0.97
2019-02-26T07:09:02.507Z,1.04
2019-02-26T07:11:39.005Z,1.03
2019-02-26T07:14:13.913Z,1.17
2019-02-26T07:16:49.002Z,1.23
2019-02-26T07:19:23.909Z,1.23
2019-02-26T07:21:58.699Z,1.32
2019-02-26T07:24:33.695Z,1.46
2019-02-26T07:27:09.168Z,1.59
2019-02-26T07:29:47.426Z,1.66
2019-02-26T07:32:22.134Z,1.77
2019-02-26T07:34:58.258Z,1.82
2019-02-26T07:37:35.865Z,1.96
2019-02-26T07:40:12.995Z,2.07
2019-02-26T07:42:49.174Z,2.21
2019-02-26T07:45:24.990Z,2.30
2019-02-26T07:48:01.099Z,2.25
2019-02-26T07:50:39.661Z,2.35
2019-02-26T07:53:14.523Z,2.49
2019-02-26T07:55:49.519Z,2.63
2019-02-26T07:58:25.230Z,2.73
2019-02-26T08:01:00.178Z,2.82
2019-02-26T08:03:35.069Z,2.92
2019-02-26T08:06:12.259Z,3.01
2019-02-26T08:08:48.838Z,3.08
2019-02-26T08:11:23.904Z,3.20
2019-02-26T08:13:59.704Z,3.40
2019-02-26T08:16:35.415Z,3.62
2019-02-26T08:19:10.291Z,3.85
2019-02-26T08:21:45.499Z,4.08
2019-02-26T08:24:24.581Z,4.23
2019-02-26T08:27:01.418Z,4.35
2019-02-26T08:29:36.255Z,4.57
2019-02-26T08:32:13.758Z,4.72
2019-02-26T08:34:47.896Z,4.79
2019-02-26T08:37:22.826Z,5.01
2019-02-26T08:39:58.250Z,5.04
2019-02-26T08:42:34.084Z,5.14
2019-02-26T08:45:15.106Z,5.33
2019-02-26T08:47:51.220Z,5.40
2019-02-26T08:50:28.585Z,5.53
2019-02-26T08:53:03.139Z,5.63
2019-02-26T08:55:37.992Z,5.79
2019-02-26T08:58:13.244Z,5.93
2019-02-26T09:00:48.212Z,6.10
2019-02-26T09:03:27.738Z,6.19
2019-02-26T09:06:12.434Z,6.34
2019-02-26T09:08:40.650Z,6.40
2019-02-26T09:11:15.848Z,6.78
2019-02-26T09:13:50.822Z,6.87
2019-02-26T09:16:28.298Z,6.84
2019-02-26T09:19:03.188Z,6.92
2019-02-26T09:21:41.745Z,7.22
2019-02-26T09:24:15.358Z,7.27
2019-02-26T09:26:52.097Z,7.51
2019-02-26T09:29:27.925Z,7.56
2019-02-26T09:32:06.692Z,7.56
2019-02-26T09:34:39.962Z,7.53
2019-02-26T09:37:14.818Z,7.56
2019-02-26T09:39:49.781Z,7.94
2019-02-26T09:42:29.635Z,8.08
2019-02-26T09:45:03.600Z,8.13
2019-02-26T09:47:38.494Z,8.16
2019-02-26T09:50:15.371Z,8.52
2019-02-26T09:52:52.668Z,8.91
2019-02-26T09:55:27.216Z,8.65
2019-02-26T09:58:02.667Z,8.75
2019-02-26T10:00:37.679Z,8.85
2019-02-26T10:03:14.664Z,9.11
2019-02-26T10:05:50.973Z,9.14
2019-02-26T10:08:28.166Z,9.46
2019-02-26T10:11:04.883Z,9.55
2019-02-26T10:13:42.011Z,9.32
2019-02-26T10:16:17.480Z,9.47
2019-02-26T10:18:54.325Z,9.53
2019-02-26T10:21:28.982Z,9.75
2019-02-26T10:24:07.788Z,9.72
2019-02-26T10:26:43.360Z,10.09
2019-02-26T10:29:18.365Z,9.98
2019-02-26T10:31:56.220Z,9.81
2019-02-26T10:34:30.412Z,10.12
2019-02-26T10:37:05.234Z,9.80
2019-02-26T10:39:41.871Z,10.02
2019-02-26T10:42:18.119Z,10.17
2019-02-26T10:44:53.518Z,10.32
2019-02-26T10:47:29.778Z,10.55
2019-02-26T10:50:09.900Z,10.62
2019-02-26T10:52:45.964Z,10.94
2019-02-26T10:55:24.249Z,11.25
2019-02-26T10:57:58.695Z,11.28
2019-02-26T11:00:37.738Z,11.34
2019-02-26T11:03:14.720Z,11.36
2019-02-26T11:05:51.856Z,11.47
2019-02-26T11:08:29.002Z,11.18
2019-02-26T11:11:01.666Z,11.43
2019-02-26T11:13:37.755Z,11.40
2019-02-26T11:16:21.829Z,11.44
2019-02-26T11:18:51.099Z,11.53
2019-02-26T11:21:26.112Z,11.67
2019-02-26T11:24:03.688Z,11.65
2019-02-26T11:26:40.730Z,11.97
2019-02-26T11:29:14.942Z,12.18
2019-02-26T11:31:49.883Z,12.02
2019-02-26T11:34:25.469Z,11.96
2019-02-26T11:37:03.373Z,11.88
2019-02-26T11:39:39.060Z,12.27
2019-02-26T11:42:15.850Z,12.43
2019-02-26T11:44:50.612Z,12.59
2019-02-26T11:47:25.552Z,13.03
2019-02-26T11:50:02.762Z,12.79
2019-02-26T11:52:37.178Z,12.99
2019-02-26T11:55:12.758Z,12.92
2019-02-26T11:57:49.781Z,12.96
2019-02-26T12:00:36.314Z,13.70
2019-02-26T12:03:09.405Z,13.44
2019-02-26T12:05:44.373Z,14.17
2019-02-26T12:08:22.170Z,14.12
2019-02-26T12:11:01.044Z,14.58
2019-02-26T12:13:32.572Z,15.16
2019-02-26T12:16:07.472Z,16.19
2019-02-26T12:18:44.428Z,16.64
2019-02-26T12:21:19.017Z,17.18
2019-02-26T12:23:53.925Z,17.68
2019-02-26T12:26:30.192Z,18.17
2019-02-26T12:29:05.260Z,18.47
2019-02-26T12:31:40.158Z,19.06
2019-02-26T12:34:17.412Z,19.42
2019-02-26T12:36:53.736Z,19.31
2019-02-26T12:39:31.209Z,19.14
2019-02-26T12:42:10.481Z,20.06
2019-02-26T12:44:45.435Z,20.34
2019-02-26T12:47:24.626Z,20.81
2019-02-26T12:50:01.704Z,20.36
2019-02-26T12:52:42.287Z,21.16
2019-02-26T12:55:21.551Z,21.35
2019-02-26T12:58:01.095Z,21.61
2019-02-26T13:00:41.253Z,22.43
2019-02-26T13:03:15.876Z,22.25
2019-02-26T13:05:51.891Z,22.62
2019-02-26T13:08:27.796Z,22.67
2019-02-26T13:11:02.905Z,22.56
2019-02-26T13:13:38.911Z,21.18
2019-02-26T13:16:13.847Z,21.25
2019-02-26T13:18:51.675Z,22.01
2019-02-26T13:21:25.371Z,21.58
2019-02-26T13:24:11.450Z,21.48
2019-02-26T13:26:41.859Z,22.37
2019-02-26T13:29:15.389Z,23.19
2019-02-26T13:31:56.439Z,23.21
2019-02-26T13:34:27.017Z,23.89
2019-02-26T13:37:02.049Z,23.87
2019-02-26T13:39:40.869Z,23.95
2019-02-26T13:42:19.498Z,24.12
2019-02-26T13:44:53.171Z,24.05
2019-02-26T13:47:29.012Z,23.70
2019-02-26T13:50:09.542Z,24.70
2019-02-26T13:52:44.718Z,24.39
2019-02-26T13:55:19.713Z,24.14
2019-02-26T13:57:54.625Z,24.08
2019-02-26T14:00:29.911Z,24.50
2019-02-26T14:03:05.178Z,24.54
2019-02-26T14:05:41.307Z,25.45
2019-02-26T14:08:16.261Z,25.93
2019-02-26T14:10:56.527Z,25.79
2019-02-26T14:13:31.460Z,24.95
2019-02-26T14:16:06.377Z,24.97
2019-02-26T14:18:41.426Z,25.51
2019-02-26T14:21:16.352Z,26.14
2019-02-26T14:23:51.647Z,26.65
2019-02-26T14:26:28.501Z,26.79
2019-02-26T14:29:03.396Z,26.85
2019-02-26T14:31:38.371Z,26.60
2019-02-26T14:34:13.265Z,26.49
2019-02-26T14:36:48.553Z,26.46
2019-02-26T14:39:23.564Z,26.07
2019-02-26T14:41:58.493Z,26.46
2019-02-26T14:44:33.404Z,26.61
2019-02-26T14:47:08.801Z,24.50
2019-02-26T14:49:43.723Z,25.61
2019-02-26T14:52:18.627Z,24.86
2019-02-26T14:54:53.535Z,25.92
2019-02-26T14:57:28.447Z,25.96
2019-02-26T15:00:09.317Z,26.43
2019-02-26T15:02:45.882Z,26.44
2019-02-26T15:05:20.795Z,26.18
2019-02-26T15:07:56.755Z,25.32
2019-02-26T15:10:32.537Z,24.88
2019-02-26T15:13:07.434Z,26.07
2019-02-26T15:15:42.391Z,25.28
2019-02-26T15:18:17.438Z,26.03
2019-02-26T15:20:52.724Z,25.48
2019-02-26T15:23:27.718Z,24.68
2019-02-26T15:26:02.638Z,23.38
2019-02-26T15:28:37.557Z,22.02
2019-02-26T15:31:12.523Z,21.27
2019-02-26T15:33:47.485Z,19.89
2019-02-26T15:36:22.381Z,19.27
2019-02-26T15:38:57.513Z,18.53
2019-02-26T15:41:34.129Z,18.29
2019-02-26T15:44:09.117Z,17.75
2019-02-26T15:46:44.870Z,17.65
2019-02-26T15:49:19.808Z,17.27
2019-02-26T15:51:54.753Z,16.88
2019-02-26T15:54:29.763Z,16.75
2019-02-26T15:57:04.723Z,16.62
2019-02-26T15:59:39.704Z,16.46
2019-02-26T16:02:14.610Z,16.35
2019-02-26T16:04:49.877Z,16.21
2019-02-26T16:07:24.760Z,16.08
2019-02-26T16:09:59.767Z,15.92
2019-02-26T16:12:34.801Z,15.96
2019-02-26T16:15:11.062Z,15.92
2019-02-26T16:17:46.001Z,15.84
2019-02-26T16:20:23.363Z,15.65
2019-02-26T16:22:58.563Z,15.39
2019-02-26T16:25:33.503Z,15.22
2019-02-26T16:28:08.430Z,14.99
2019-02-26T16:30:43.553Z,14.68
2019-02-26T16:33:18.450Z,14.44
2019-02-26T16:35:57.400Z,14.14
2019-02-26T16:38:30.220Z,13.90
2019-02-26T16:41:05.610Z,13.60
2019-02-26T16:43:40.608Z,13.44
2019-02-26T16:46:15.572Z,13.19
2019-02-26T16:48:53.169Z,12.92
2019-02-26T16:51:27.466Z,12.71
2019-02-26T16:54:07.401Z,12.51
2019-02-26T16:56:41.756Z,12.35
2019-02-26T16:59:16.681Z,12.18
2019-02-26T17:01:52.616Z,12.03
2019-02-26T17:04:28.719Z,11.81
2019-02-26T17:07:03.620Z,11.62
2019-02-26T17:09:38.626Z,11.41
2019-02-26T17:12:13.655Z,11.30
2019-02-26T17:14:50.602Z,11.12
2019-02-26T17:17:25.474Z,11.00
2019-02-26T17:20:01.214Z,10.87
2019-02-26T17:22:41.059Z,10.69
2019-02-26T17:25:16.165Z,10.54
2019-02-26T17:27:52.071Z,10.42
2019-02-26T17:30:26.975Z,10.27
2019-02-26T17:33:01.892Z,10.13
2019-02-26T17:35:36.827Z,9.93
2019-02-26T17:38:15.436Z,9.81
2019-02-26T17:40:50.113Z,9.69
2019-02-26T17:43:25.819Z,9.61
2019-02-26T17:46:00.794Z,9.48
2019-02-26T17:48:43.536Z,9.38
2019-02-26T17:51:14.033Z,9.29
2019-02-26T17:53:48.939Z,9.23
2019-02-26T17:56:26.677Z,9.12
2019-02-26T17:59:02.272Z,8.98
2019-02-26T18:01:37.161Z,8.94
2019-02-26T18:04:12.752Z,8.84
2019-02-26T18:06:47.656Z,8.76
2019-02-26T18:09:25.015Z,8.64
2019-02-26T18:12:03.445Z,8.54
2019-02-26T18:14:39.404Z,8.51
2019-02-26T18:17:18.158Z,8.41
2019-02-26T18:20:05.031Z,8.39
2019-02-26T18:22:41.571Z,8.38
2019-02-26T18:25:37.609Z,8.31
2019-02-26T18:28:19.522Z,8.16
2019-02-26T18:30:54.407Z,8.05
2019-02-26T18:33:29.307Z,8.06
2019-02-26T18:36:04.205Z,7.91
2019-02-26T18:38:39.223Z,7.94
2019-02-26T18:41:14.080Z,7.84
2019-02-26T18:43:48.978Z,7.77
2019-02-26T18:46:25.084Z,7.67
2019-02-26T18:49:00.101Z,7.69
2019-02-26T18:51:36.417Z,7.66
2019-02-26T18:54:11.881Z,7.61
2019-02-26T18:56:47.667Z,7.64
2019-02-26T18:59:22.791Z,7.48
2019-02-26T19:01:57.785Z,7.41
2019-02-26T19:04:33.729Z,7.26
2019-02-26T19:07:08.661Z,7.28
2019-02-26T19:09:48.564Z,7.22
2019-02-26T19:12:23.529Z,7.22
2019-02-26T19:14:58.493Z,7.05
2019-02-26T19:17:34.240Z,7.01
2019-02-26T19:20:14.928Z,6.84
2019-02-26T19:22:49.631Z,6.90
2019-02-26T19:25:24.623Z,6.90
2019-02-26T19:28:05.444Z,6.84
2019-02-26T19:30:40.419Z,6.82
2019-02-26T19:33:18.673Z,6.67
2019-02-26T19:35:53.219Z,6.69
2019-02-26T19:38:28.225Z,6.68
2019-02-26T19:41:12.418Z,6.60
2019-02-26T19:43:45.437Z,6.51
2019-02-26T19:46:23.642Z,6.45
2019-02-26T19:49:05.786Z,6.38
2019-02-26T19:51:41.192Z,6.33
2019-02-26T19:54:16.052Z,6.22
2019-02-26T19:56:51.071Z,6.26
2019-02-26T19:59:27.014Z,6.14
2019-02-26T20:02:02.039Z,6.17
2019-02-26T20:04:38.651Z,6.12
2019-02-26T20:07:13.718Z,6.08
2019-02-26T20:09:48.603Z,6.02
2019-02-26T20:12:23.578Z,5.99
2019-02-26T20:15:02.872Z,5.93
2019-02-26T20:17:37.903Z,5.76
2019-02-26T20:20:13.923Z,5.65
2019-02-26T20:22:49.175Z,5.78
2019-02-26T20:25:25.972Z,5.66
2019-02-26T20:28:05.944Z,5.67
2019-02-26T20:30:41.700Z,5.53
2019-02-26T20:33:16.902Z,5.54
2019-02-26T20:35:51.889Z,5.46
2019-02-26T20:38:26.910Z,5.41
2019-02-26T20:42:21.878Z,5.35
2019-02-26T20:43:59.345Z,5.29
2019-02-26T20:46:34.324Z,5.30
2019-02-26T20:49:09.860Z,5.25
2019-02-26T20:51:45.888Z,5.19
2019-02-26T20:54:20.804Z,5.13
2019-02-26T20:56:55.716Z,5.21
2019-02-26T20:59:30.622Z,5.26
2019-02-26T21:02:05.446Z,5.12
2019-02-26T21:04:40.376Z,5.12
2019-02-26T21:07:15.280Z,4.94
2019-02-26T21:09:50.421Z,5.02
2019-02-26T21:12:28.648Z,4.94
2019-02-26T21:15:02.589Z,4.87
2019-02-26T21:17:37.634Z,4.87
2019-02-26T21:20:13.086Z,4.93
2019-02-26T21:22:48.000Z,4.82
2019-02-26T21:25:22.990Z,4.77
2019-02-26T21:28:00.780Z,4.73
2019-02-26T21:30:34.442Z,4.60
2019-02-26T21:33:09.360Z,4.69
2019-02-26T21:35:44.255Z,4.49
2019-02-26T21:38:19.328Z,4.45
2019-02-26T21:40:54.268Z,4.45
2019-02-26T21:43:29.164Z,4.33
2019-02-26T21:46:04.046Z,4.33
2019-02-26T21:48:39.051Z,4.25
2019-02-26T21:51:13.920Z,4.26
2019-02-26T21:53:49.178Z,4.20
2019-02-26T21:56:24.610Z,4.31
2019-02-26T21:59:02.350Z,4.29
2019-02-26T22:01:37.218Z,4.16
2019-02-26T22:04:12.146Z,4.24
2019-02-26T22:06:47.799Z,4.16
2019-02-26T22:09:22.754Z,4.15
2019-02-26T22:11:57.642Z,4.13
2019-02-26T22:14:36.503Z,4.31
2019-02-26T22:17:10.223Z,4.24
2019-02-26T22:19:45.041Z,4.10
2019-02-26T22:22:20.308Z,4.04
2019-02-26T22:24:55.296Z,4.00
2019-02-26T22:27:30.190Z,4.01
2019-02-26T22:30:05.245Z,3.96
2019-02-26T22:32:40.258Z,3.99
2019-02-26T22:35:15.084Z,3.99
2019-02-26T22:37:49.991Z,3.93
2019-02-26T22:40:28.931Z,3.98
2019-02-26T22:43:01.464Z,3.97
2019-02-26T22:45:36.330Z,3.85
2019-02-26T22:48:13.487Z,3.86
2019-02-26T22:50:47.860Z,3.75
2019-02-26T22:53:22.878Z,3.73
2019-02-26T22:55:57.772Z,3.85
2019-02-26T22:58:35.585Z,3.61
2019-02-26T23:01:19.858Z,3.59
2019-02-26T23:03:59.029Z,3.71
2019-02-26T23:06:34.097Z,3.64
2019-02-26T23:09:17.605Z,3.55
2019-02-26T23:11:52.380Z,3.52
2019-02-26T23:14:27.878Z,3.48
2019-02-26T23:17:14.025Z,3.56
2019-02-26T23:19:48.977Z,3.46
2019-02-26T23:22:24.117Z,3.29
2019-02-26T23:25:01.030Z,3.28
2019-02-26T23:27:42.840Z,3.20
2019-02-26T23:30:18.391Z,3.27
2019-02-26T23:32:53.396Z,3.41
2019-02-26T23:35:29.547Z,3.24
2019-02-26T23:38:08.351Z,3.22
2019-02-26T23:40:42.892Z,3.17
2019-02-26T23:43:17.704Z,3.23
2019-02-26T23:45:56.838Z,3.22
2019-02-26T23:48:29.197Z,3.11
2019-02-26T23:51:04.245Z,3.10
2019-02-26T23:53:39.203Z,3.22
2019-02-26T23:56:14.310Z,3.08
2019-02-26T23:58:49.266Z,3.02
